createdAt,value
2022-08-27T00:00:51.462Z,99.90
2022-08-27T00:03:19.738Z,99.90
2022-08-27T00:05:48.074Z,99.90
2022-08-27T00:08:19.377Z,99.90
2022-08-27T00:10:48.990Z,99.90
2022-08-27T00:13:17.182Z,99.90
2022-08-27T00:15:45.848Z,99.90
2022-08-27T00:18:14.453Z,99.90
2022-08-27T00:20:43.858Z,99.90
2022-08-27T00:23:12.116Z,99.90
2022-08-27T00:25:40.582Z,99.90
2022-08-27T00:28:10.376Z,99.90
2022-08-27T00:30:39.939Z,99.90
2022-08-27T00:33:08.168Z,99.90
2022-08-27T00:35:36.807Z,99.90
2022-08-27T00:38:05.640Z,99.90
2022-08-27T00:40:34.536Z,99.90
2022-08-27T00:43:03.351Z,99.90
2022-08-27T00:45:37.771Z,99.90
2022-08-27T00:48:08.532Z,99.90
2022-08-27T00:50:40.891Z,99.90
2022-08-27T00:53:14.969Z,99.90
2022-08-27T00:55:48.378Z,99.90
2022-08-27T00:58:22.793Z,99.90
2022-08-27T01:00:53.023Z,99.90
2022-08-27T01:03:21.478Z,99.90
2022-08-27T01:05:51.110Z,99.90
2022-08-27T01:08:24.263Z,99.90
2022-08-27T01:10:53.567Z,99.90
2022-08-27T01:13:59.228Z,99.90
2022-08-27T01:16:23.963Z,99.90
2022-08-27T01:18:55.576Z,99.90
2022-08-27T01:21:31.622Z,99.90
2022-08-27T01:24:04.296Z,99.90
2022-08-27T01:26:34.118Z,99.90
2022-08-27T01:29:02.554Z,99.90
2022-08-27T01:31:32.032Z,99.90
2022-08-27T01:34:05.110Z,99.90
2022-08-27T01:36:35.924Z,99.90
2022-08-27T01:39:04.655Z,99.90
2022-08-27T01:41:36.124Z,99.90
2022-08-27T01:44:08.671Z,99.90
2022-08-27T01:46:36.930Z,99.90
2022-08-27T01:49:05.547Z,99.90
2022-08-27T01:51:37.128Z,99.90
2022-08-27T01:54:05.825Z,99.90
2022-08-27T01:56:35.375Z,99.90
2022-08-27T01:59:03.598Z,99.90
2022-08-27T02:01:31.933Z,99.90
2022-08-27T02:04:00.268Z,99.90
2022-08-27T02:06:31.449Z,99.90
2022-08-27T02:09:00.261Z,99.90
2022-08-27T02:11:28.505Z,99.90
2022-08-27T02:13:58.055Z,99.90
2022-08-27T02:16:26.298Z,99.90
2022-08-27T02:18:56.998Z,99.90
2022-08-27T02:21:25.175Z,99.90
2022-08-27T02:23:55.092Z,99.90
2022-08-27T02:26:23.868Z,99.90
2022-08-27T02:28:52.637Z,99.90
2022-08-27T02:31:23.596Z,99.90
2022-08-27T02:33:54.181Z,99.90
2022-08-27T02:36:22.400Z,99.90
2022-08-27T02:38:53.140Z,99.90
2022-08-27T02:41:21.313Z,99.90
2022-08-27T02:43:52.476Z,99.90
2022-08-27T02:46:22.154Z,99.90
2022-08-27T02:48:52.869Z,99.90
2022-08-27T02:51:23.490Z,99.90
2022-08-27T02:53:52.038Z,99.90
2022-08-27T02:56:21.760Z,99.90
2022-08-27T02:58:50.609Z,99.90
2022-08-27T03:01:22.850Z,99.90
2022-08-27T03:03:51.047Z,99.90
2022-08-27T03:06:19.357Z,99.90
2022-08-27T03:08:52.420Z,99.90
2022-08-27T03:11:24.097Z,99.90
2022-08-27T03:13:53.008Z,99.90
2022-08-27T03:16:22.657Z,99.90
2022-08-27T03:18:49.881Z,99.90
2022-08-27T03:21:24.195Z,99.90
2022-08-27T03:23:53.006Z,99.90
2022-08-27T03:26:21.755Z,99.90
2022-08-27T03:28:50.110Z,99.90
2022-08-27T03:31:26.803Z,99.90
2022-08-27T03:33:58.165Z,99.90
2022-08-27T03:36:30.762Z,99.90
2022-08-27T03:38:59.396Z,99.90
2022-08-27T03:41:39.974Z,99.90
2022-08-27T03:44:21.381Z,99.90
2022-08-27T03:46:50.374Z,99.90
2022-08-27T03:49:23.657Z,99.90
2022-08-27T03:51:53.990Z,99.90
2022-08-27T03:54:22.755Z,99.90
2022-08-27T03:56:50.943Z,99.90
2022-08-27T03:59:19.106Z,99.90
2022-08-27T04:01:47.831Z,99.90
2022-08-27T04:04:16.135Z,99.90
2022-08-27T04:06:45.682Z,99.90
2022-08-27T04:09:14.066Z,99.90
2022-08-27T04:11:44.643Z,99.90
2022-08-27T04:14:19.747Z,99.90
2022-08-27T04:16:56.507Z,99.90
2022-08-27T04:19:28.116Z,99.90
2022-08-27T04:22:02.361Z,99.90
2022-08-27T04:24:32.251Z,99.90
2022-08-27T04:27:03.583Z,99.90
2022-08-27T04:29:32.244Z,99.90
2022-08-27T04:32:01.093Z,99.90
2022-08-27T04:34:30.044Z,99.90
2022-08-27T04:37:00.457Z,99.90
2022-08-27T04:39:30.367Z,99.90
2022-08-27T04:42:02.198Z,99.90
2022-08-27T04:44:34.845Z,99.90
2022-08-27T04:47:05.280Z,99.90
2022-08-27T04:49:33.980Z,99.90
2022-08-27T04:52:04.659Z,99.90
2022-08-27T04:54:37.197Z,99.90
2022-08-27T04:57:07.621Z,99.90
2022-08-27T04:59:36.943Z,99.90
2022-08-27T05:02:06.358Z,99.90
2022-08-27T05:04:40.042Z,99.90
2022-08-27T05:07:11.176Z,99.90
2022-08-27T05:09:39.789Z,99.90
2022-08-27T05:12:10.262Z,99.90
2022-08-27T05:14:38.432Z,99.90
2022-08-27T05:17:09.148Z,99.90
2022-08-27T05:19:37.305Z,99.90
2022-08-27T05:22:05.753Z,99.90
2022-08-27T05:24:35.283Z,99.90
2022-08-27T05:27:06.729Z,99.90
2022-08-27T05:29:41.117Z,99.90
2022-08-27T05:32:09.465Z,99.90
2022-08-27T05:34:40.137Z,99.90
2022-08-27T05:37:08.499Z,99.90
2022-08-27T05:39:41.135Z,99.90
2022-08-27T05:42:12.455Z,99.90
2022-08-27T05:44:41.883Z,99.90
2022-08-27T05:47:10.497Z,99.90
2022-08-27T05:49:41.005Z,99.90
2022-08-27T05:52:11.137Z,99.90
2022-08-27T05:54:41.118Z,99.90
2022-08-27T05:57:09.338Z,99.90
2022-08-27T05:59:57.242Z,99.90
2022-08-27T06:02:25.559Z,99.90
2022-08-27T06:04:56.079Z,99.90
2022-08-27T06:07:24.326Z,99.90
2022-08-27T06:09:53.983Z,99.90
2022-08-27T06:12:28.125Z,99.90
2022-08-27T06:14:56.729Z,99.90
2022-08-27T06:17:24.978Z,99.90
2022-08-27T06:19:53.460Z,99.90
2022-08-27T06:22:21.659Z,99.90
2022-08-27T06:24:50.053Z,99.90
2022-08-27T06:27:22.030Z,99.90
2022-08-27T06:29:52.468Z,99.90
2022-08-27T06:32:21.025Z,99.90
2022-08-27T06:34:51.531Z,99.90
2022-08-27T06:37:19.778Z,99.90
2022-08-27T06:39:48.006Z,99.90
2022-08-27T06:42:16.188Z,99.90
2022-08-27T06:44:54.737Z,99.90
2022-08-27T06:47:22.962Z,99.90
2022-08-27T06:49:51.166Z,99.90
2022-08-27T06:52:19.368Z,99.90
2022-08-27T06:54:47.690Z,99.90
2022-08-27T06:57:15.836Z,99.90
2022-08-27T06:59:44.581Z,99.90
2022-08-27T07:02:16.857Z,99.90
2022-08-27T07:04:45.203Z,99.90
2022-08-27T07:07:14.264Z,99.90
2022-08-27T07:09:56.843Z,99.90
2022-08-27T07:12:30.648Z,99.90
2022-08-27T07:14:59.068Z,99.90
2022-08-27T07:17:29.176Z,99.90
2022-08-27T07:19:57.641Z,99.90
2022-08-27T07:22:25.833Z,99.90
2022-08-27T07:24:54.133Z,99.90
2022-08-27T07:27:22.437Z,99.90
2022-08-27T07:29:50.646Z,99.90
2022-08-27T07:32:18.987Z,99.90
2022-08-27T07:34:48.519Z,99.90
2022-08-27T07:37:16.712Z,99.90
2022-08-27T07:39:47.314Z,99.90
2022-08-27T07:42:33.026Z,99.90
2022-08-27T07:45:01.270Z,99.90
2022-08-27T07:47:32.735Z,99.90
2022-08-27T07:50:02.344Z,99.90
2022-08-27T07:52:33.793Z,99.90
2022-08-27T07:55:02.186Z,99.90
2022-08-27T07:57:32.965Z,99.90
2022-08-27T08:00:01.205Z,99.90
2022-08-27T08:02:32.644Z,99.90
2022-08-27T08:05:02.791Z,99.90
2022-08-27T08:07:31.106Z,99.90
2022-08-27T08:10:02.225Z,99.90
2022-08-27T08:12:31.675Z,99.90
2022-08-27T08:14:59.874Z,99.90
2022-08-27T08:17:30.623Z,99.90
2022-08-27T08:20:18.428Z,99.90
2022-08-27T08:22:48.882Z,99.90
2022-08-27T08:25:19.754Z,99.90
2022-08-27T08:27:48.165Z,99.90
2022-08-27T08:30:16.514Z,99.90
2022-08-27T08:32:46.821Z,99.90
2022-08-27T08:35:15.665Z,99.90
2022-08-27T08:37:47.925Z,99.90
2022-08-27T08:40:26.845Z,99.90
2022-08-27T08:42:57.945Z,99.90
2022-08-27T08:45:31.406Z,99.90
2022-08-27T08:48:06.107Z,99.90
2022-08-27T08:50:39.172Z,99.90
2022-08-27T08:53:20.038Z,99.90
2022-08-27T08:55:52.666Z,99.90
2022-08-27T08:58:33.595Z,99.90
2022-08-27T09:01:11.184Z,99.90
2022-08-27T09:03:42.337Z,99.90
2022-08-27T09:06:22.137Z,99.90
2022-08-27T09:08:51.714Z,99.90
2022-08-27T09:11:28.831Z,99.90
2022-08-27T09:14:00.879Z,99.90
2022-08-27T09:16:32.461Z,99.90
2022-08-27T09:19:05.957Z,99.90
2022-08-27T09:21:49.456Z,99.90
2022-08-27T09:24:32.794Z,99.90
2022-08-27T09:27:03.425Z,99.90
2022-08-27T09:29:31.882Z,99.90
2022-08-27T09:32:05.784Z,99.90
2022-08-27T09:34:38.580Z,99.90
2022-08-27T09:37:15.220Z,99.90
2022-08-27T09:39:51.373Z,99.90
2022-08-27T09:42:31.473Z,99.90
2022-08-27T09:45:02.746Z,99.90
2022-08-27T09:47:31.029Z,99.90
2022-08-27T09:50:06.668Z,99.90
2022-08-27T09:52:38.700Z,99.90
2022-08-27T09:55:09.027Z,99.90
2022-08-27T09:57:42.027Z,99.90
2022-08-27T10:00:18.053Z,99.90
2022-08-27T10:02:55.542Z,99.90
2022-08-27T10:05:32.037Z,99.90
2022-08-27T10:08:07.197Z,99.90
2022-08-27T10:10:52.886Z,99.90
2022-08-27T10:13:24.586Z,99.90
2022-08-27T10:16:14.436Z,99.90
2022-08-27T10:18:51.988Z,99.90
2022-08-27T10:21:39.399Z,99.90
2022-08-27T10:24:21.789Z,99.90
2022-08-27T10:27:02.655Z,99.90
2022-08-27T10:29:41.907Z,99.90
2022-08-27T10:32:29.477Z,99.90
2022-08-27T10:35:08.584Z,99.90
2022-08-27T10:37:47.278Z,99.90
2022-08-27T10:40:23.349Z,99.90
2022-08-27T10:43:03.118Z,99.90
2022-08-27T10:45:44.203Z,99.80
2022-08-27T10:48:25.300Z,99.20
2022-08-27T10:50:59.601Z,99.30
2022-08-27T10:53:33.470Z,98.90
2022-08-27T10:56:13.920Z,99.90
2022-08-27T10:59:02.483Z,99.90
2022-08-27T11:01:41.916Z,99.70
2022-08-27T11:04:15.068Z,99.60
2022-08-27T11:06:49.890Z,98.80
2022-08-27T11:09:22.477Z,98.70
2022-08-27T11:12:13.859Z,98.70
2022-08-27T11:14:48.948Z,98.30
2022-08-27T11:17:21.778Z,97.90
2022-08-27T11:19:58.056Z,97.00
2022-08-27T11:22:34.234Z,96.50
2022-08-27T11:25:11.819Z,95.50
2022-08-27T11:27:43.042Z,95.60
2022-08-27T11:30:21.756Z,95.40
2022-08-27T11:33:00.305Z,96.70
2022-08-27T11:35:41.479Z,96.50
2022-08-27T11:38:35.844Z,96.60
2022-08-27T11:41:45.213Z,96.70
2022-08-27T11:44:17.531Z,97.60
2022-08-27T11:46:52.903Z,97.20
2022-08-27T11:49:28.479Z,97.60
2022-08-27T11:52:03.588Z,97.20
2022-08-27T11:54:44.293Z,96.80
2022-08-27T11:57:16.969Z,95.90
2022-08-27T11:59:45.213Z,95.50
2022-08-27T12:02:26.053Z,95.20
2022-08-27T12:05:09.211Z,94.60
2022-08-27T12:07:45.340Z,93.50
2022-08-27T12:10:33.605Z,93.30
2022-08-27T12:13:18.793Z,94.00
2022-08-27T12:15:58.232Z,93.70
2022-08-27T12:19:00.491Z,93.40
2022-08-27T12:21:45.179Z,93.10
2022-08-27T12:24:31.502Z,94.40
2022-08-27T12:27:14.766Z,93.60
2022-08-27T12:29:50.678Z,94.00
2022-08-27T12:32:27.217Z,92.80
2022-08-27T12:35:05.166Z,92.40
2022-08-27T12:37:39.531Z,93.10
2022-08-27T12:40:24.528Z,92.80
2022-08-27T12:43:07.323Z,92.60
2022-08-27T12:45:42.580Z,92.40
2022-08-27T12:48:11.804Z,92.70
2022-08-27T12:50:41.669Z,92.20
2022-08-27T12:53:25.333Z,91.10
2022-08-27T12:56:32.201Z,90.70
2022-08-27T12:59:10.941Z,90.90
2022-08-27T13:01:58.011Z,91.40
2022-08-27T13:04:28.817Z,91.50
2022-08-27T13:07:01.661Z,91.30
2022-08-27T13:09:34.664Z,91.40
2022-08-27T13:12:04.932Z,91.00
2022-08-27T13:14:38.069Z,91.00
2022-08-27T13:17:10.612Z,90.10
2022-08-27T13:19:49.220Z,88.50
2022-08-27T13:22:25.223Z,87.90
2022-08-27T13:24:55.532Z,88.30
2022-08-27T13:27:28.635Z,89.10
2022-08-27T13:29:58.722Z,88.50
2022-08-27T13:32:31.093Z,89.30
2022-08-27T13:35:03.057Z,89.30
2022-08-27T13:37:38.773Z,88.30
2022-08-27T13:40:08.085Z,89.80
2022-08-27T13:42:40.715Z,87.00
2022-08-27T13:45:10.173Z,88.30
2022-08-27T13:47:45.815Z,89.40
2022-08-27T13:50:22.791Z,86.90
2022-08-27T13:53:20.305Z,87.00
2022-08-27T13:55:50.370Z,88.80
2022-08-27T13:58:27.393Z,89.20
2022-08-27T14:00:56.764Z,87.90
2022-08-27T14:03:33.469Z,88.60
2022-08-27T14:06:05.048Z,87.50
2022-08-27T14:08:36.933Z,86.30
2022-08-27T14:11:08.724Z,87.50
2022-08-27T14:13:43.389Z,87.70
2022-08-27T14:16:23.437Z,87.50
2022-08-27T14:18:59.360Z,87.00
2022-08-27T14:21:30.789Z,87.10
2022-08-27T14:24:00.409Z,86.70
2022-08-27T14:26:29.386Z,85.90
2022-08-27T14:28:58.439Z,83.90
2022-08-27T14:31:27.131Z,83.50
2022-08-27T14:33:55.570Z,85.40
2022-08-27T14:36:25.235Z,86.20
2022-08-27T14:38:56.683Z,86.00
2022-08-27T14:41:26.415Z,85.70
2022-08-27T14:43:54.679Z,85.80
2022-08-27T14:46:27.358Z,86.30
2022-08-27T14:48:57.840Z,86.30
2022-08-27T14:51:28.148Z,86.10
2022-08-27T14:53:57.429Z,86.50
2022-08-27T14:56:27.693Z,87.10
2022-08-27T14:58:56.041Z,87.60
2022-08-27T15:01:26.243Z,87.10
2022-08-27T15:03:55.829Z,85.80
2022-08-27T15:06:25.323Z,86.00
2022-08-27T15:08:54.846Z,86.50
2022-08-27T15:11:25.147Z,87.30
2022-08-27T15:13:56.073Z,87.00
2022-08-27T15:16:31.904Z,87.40
2022-08-27T15:19:03.427Z,88.20
2022-08-27T15:21:36.452Z,88.30
2022-08-27T15:24:07.078Z,88.30
2022-08-27T15:26:35.444Z,87.80
2022-08-27T15:29:06.831Z,88.90
2022-08-27T15:31:38.214Z,89.70
2022-08-27T15:34:07.057Z,89.90
2022-08-27T15:36:35.852Z,90.20
2022-08-27T15:39:05.047Z,90.00
2022-08-27T15:41:38.735Z,89.90
2022-08-27T15:44:15.864Z,90.00
2022-08-27T15:46:48.159Z,90.00
2022-08-27T15:49:16.741Z,90.00
2022-08-27T15:51:45.456Z,89.50
2022-08-27T15:54:13.931Z,90.20
2022-08-27T15:56:42.222Z,90.20
2022-08-27T15:59:10.632Z,90.80
2022-08-27T16:01:40.366Z,88.50
2022-08-27T16:04:10.255Z,88.50
2022-08-27T16:06:38.629Z,89.20
2022-08-27T16:09:07.454Z,88.50
2022-08-27T16:11:35.916Z,88.40
2022-08-27T16:14:04.279Z,88.10
2022-08-27T16:16:33.550Z,88.60
2022-08-27T16:19:05.357Z,88.80
2022-08-27T16:21:34.930Z,89.50
2022-08-27T16:24:03.419Z,89.40
2022-08-27T16:26:31.656Z,89.10
2022-08-27T16:29:00.068Z,88.70
2022-08-27T16:31:28.609Z,88.70
2022-08-27T16:34:02.175Z,88.50
2022-08-27T16:36:30.762Z,88.40
2022-08-27T16:39:01.564Z,87.30
2022-08-27T16:41:29.844Z,87.00
2022-08-27T16:43:58.895Z,87.00
2022-08-27T16:46:27.162Z,87.80
2022-08-27T16:49:14.582Z,87.80
2022-08-27T16:51:45.004Z,88.10
2022-08-27T16:54:16.546Z,88.30
2022-08-27T16:56:46.294Z,88.50
2022-08-27T16:59:14.691Z,89.20
2022-08-27T17:01:43.578Z,89.40
2022-08-27T17:04:22.597Z,89.20
2022-08-27T17:06:58.272Z,88.20
2022-08-27T17:09:27.046Z,87.60
2022-08-27T17:11:58.616Z,87.20
2022-08-27T17:14:27.426Z,87.80
2022-08-27T17:16:55.670Z,88.40
2022-08-27T17:19:26.129Z,88.90
2022-08-27T17:21:58.074Z,89.10
2022-08-27T17:24:26.690Z,89.10
2022-08-27T17:26:55.013Z,89.10
2022-08-27T17:29:23.260Z,88.60
2022-08-27T17:31:51.744Z,88.90
2022-08-27T17:34:25.052Z,89.40
2022-08-27T17:36:57.752Z,89.00
2022-08-27T17:39:26.302Z,87.90
2022-08-27T17:41:56.060Z,88.10
2022-08-27T17:44:27.492Z,88.70
2022-08-27T17:46:58.497Z,88.50
2022-08-27T17:49:31.107Z,88.80
2022-08-27T17:52:06.027Z,88.40
2022-08-27T17:54:37.643Z,89.10
2022-08-27T17:57:17.792Z,89.40
2022-08-27T17:59:48.369Z,89.60
2022-08-27T18:02:21.698Z,89.10
2022-08-27T18:04:52.572Z,89.90
2022-08-27T18:07:24.372Z,90.10
2022-08-27T18:09:53.052Z,90.40
2022-08-27T18:12:27.026Z,90.60
2022-08-27T18:15:03.252Z,90.20
2022-08-27T18:17:31.499Z,90.20
2022-08-27T18:19:59.940Z,90.00
2022-08-27T18:22:35.023Z,89.10
2022-08-27T18:25:10.548Z,88.70
2022-08-27T18:27:41.069Z,89.10
2022-08-27T18:30:11.877Z,89.00
2022-08-27T18:32:42.444Z,89.60
2022-08-27T18:35:15.653Z,89.50
2022-08-27T18:37:45.295Z,90.20
2022-08-27T18:40:18.145Z,90.70
2022-08-27T18:42:47.081Z,90.90
2022-08-27T18:45:17.172Z,91.00
2022-08-27T18:47:46.547Z,91.20
2022-08-27T18:50:22.211Z,91.40
2022-08-27T18:52:53.944Z,91.70
2022-08-27T18:55:28.047Z,91.80
2022-08-27T18:57:58.792Z,91.90
2022-08-27T19:00:30.058Z,92.10
2022-08-27T19:03:01.733Z,92.20
2022-08-27T19:05:30.840Z,92.90
2022-08-27T19:08:00.388Z,92.90
2022-08-27T19:10:29.045Z,93.00
2022-08-27T19:12:59.755Z,93.20
2022-08-27T19:15:28.010Z,93.40
2022-08-27T19:18:02.902Z,93.60
2022-08-27T19:20:34.250Z,94.00
2022-08-27T19:23:06.429Z,94.30
2022-08-27T19:25:34.692Z,94.40
2022-08-27T19:28:03.048Z,94.50
2022-08-27T19:30:33.910Z,94.70
2022-08-27T19:33:02.156Z,94.90
2022-08-27T19:35:30.511Z,95.00
2022-08-27T19:37:58.843Z,95.20
2022-08-27T19:40:28.766Z,95.40
2022-08-27T19:42:59.274Z,95.60
2022-08-27T19:45:27.641Z,95.80
2022-08-27T19:47:56.679Z,96.00
2022-08-27T19:50:28.004Z,96.20
2022-08-27T19:52:56.276Z,96.40
2022-08-27T19:55:28.234Z,96.40
2022-08-27T19:57:58.760Z,96.50
2022-08-27T20:00:27.805Z,96.60
2022-08-27T20:02:58.870Z,97.00
2022-08-27T20:05:27.314Z,97.20
2022-08-27T20:07:55.662Z,97.50
2022-08-27T20:10:31.845Z,97.90
2022-08-27T20:13:07.992Z,98.10
2022-08-27T20:15:37.124Z,98.40
2022-08-27T20:18:07.083Z,98.70
2022-08-27T20:20:37.304Z,99.10
2022-08-27T20:23:05.706Z,99.40
2022-08-27T20:25:37.213Z,99.60
2022-08-27T20:28:34.968Z,99.90
2022-08-27T20:30:58.062Z,99.90
2022-08-27T20:33:28.867Z,99.90
2022-08-27T20:36:01.515Z,99.90
2022-08-27T20:38:29.788Z,99.90
2022-08-27T20:40:59.449Z,99.90
2022-08-27T20:43:30.305Z,99.90
2022-08-27T20:45:58.861Z,99.90
2022-08-27T20:48:29.942Z,99.90
2022-08-27T20:50:58.192Z,99.90
2022-08-27T20:53:28.829Z,99.90
2022-08-27T20:55:57.057Z,99.90
2022-08-27T20:58:47.329Z,99.90
2022-08-27T21:01:18.094Z,99.90
2022-08-27T21:03:48.548Z,99.90
2022-08-27T21:06:25.003Z,99.90
2022-08-27T21:08:54.756Z,99.90
2022-08-27T21:11:23.164Z,99.90
2022-08-27T21:13:56.692Z,99.90
2022-08-27T21:16:25.876Z,99.90
2022-08-27T21:18:55.627Z,99.90
2022-08-27T21:21:24.135Z,99.90
2022-08-27T21:23:52.461Z,99.90
2022-08-27T21:26:22.840Z,99.90
2022-08-27T21:28:55.442Z,99.90
2022-08-27T21:31:26.212Z,99.90
2022-08-27T21:33:54.749Z,99.90
2022-08-27T21:36:25.302Z,99.90
2022-08-27T21:38:53.573Z,99.90
2022-08-27T21:41:22.712Z,99.90
2022-08-27T21:43:51.484Z,99.90
2022-08-27T21:46:20.607Z,99.90
2022-08-27T21:48:58.969Z,99.90
2022-08-27T21:51:29.921Z,99.90
2022-08-27T21:54:00.874Z,99.90
2022-08-27T21:56:29.571Z,99.90
2022-08-27T21:58:57.766Z,99.90
2022-08-27T22:01:26.033Z,99.90
2022-08-27T22:03:58.759Z,99.90
2022-08-27T22:06:27.088Z,99.90
2022-08-27T22:08:55.307Z,99.90
2022-08-27T22:11:24.557Z,99.90
2022-08-27T22:13:53.124Z,99.90
2022-08-27T22:16:21.340Z,99.90
2022-08-27T22:18:50.904Z,99.90
2022-08-27T22:21:24.511Z,99.90
2022-08-27T22:23:52.861Z,99.90
2022-08-27T22:26:22.053Z,99.90
2022-08-27T22:28:50.343Z,99.90
2022-08-27T22:31:18.764Z,99.90
2022-08-27T22:33:47.062Z,99.90
2022-08-27T22:36:15.859Z,99.90
2022-08-27T22:38:45.431Z,99.90
2022-08-27T22:41:18.253Z,99.90
2022-08-27T22:43:47.435Z,99.90
2022-08-27T22:46:18.721Z,99.90
2022-08-27T22:48:49.261Z,99.90
2022-08-27T22:51:17.542Z,99.90
2022-08-27T22:53:47.210Z,99.90
2022-08-27T22:56:17.785Z,99.90
2022-08-27T22:58:46.512Z,99.90
2022-08-27T23:01:19.034Z,99.90
2022-08-27T23:03:49.986Z,99.90
2022-08-27T23:06:18.803Z,99.90
2022-08-27T23:08:51.427Z,99.90
2022-08-27T23:11:21.980Z,99.90
2022-08-27T23:13:53.242Z,99.90
2022-08-27T23:16:21.552Z,99.90
2022-08-27T23:18:49.727Z,99.90
2022-08-27T23:21:20.559Z,99.90
2022-08-27T23:23:48.773Z,99.90
2022-08-27T23:26:35.161Z,99.90
2022-08-27T23:29:03.433Z,99.90
2022-08-27T23:31:31.733Z,99.90
2022-08-27T23:34:02.328Z,99.90
2022-08-27T23:36:32.258Z,99.90
2022-08-27T23:39:03.503Z,99.90
2022-08-27T23:41:35.384Z,99.90
2022-08-27T23:44:03.782Z,99.90
2022-08-27T23:46:35.153Z,99.90
2022-08-27T23:49:03.975Z,99.90
2022-08-27T23:51:34.774Z,99.90
2022-08-27T23:54:04.591Z,99.90
2022-08-27T23:56:34.112Z,99.90
2022-08-27T23:59:05.380Z,99.90
